DTTZ/TOE METAR and TAF weather

Enter ICAO airport designator
Station Type Date Time Source
DTTZ METAR 2021/05/10 02:00 UTC NOAA

DTTZ 100200Z 08018G28KT 8000 NSC 24/04 Q1012


Station Type Date Time Source
DTTZ Decoded METAR 2021/05/10 02:00 UTC NOAA

Tozeur, Tunisia (DTTZ) 33-55N 008-06E 93M
May 09, 2021 - 10:00 PM EDT / 2021.05.10 0200 UTC
Wind: from the E (080 degrees) at 21 MPH (18 KT) gusting to 32 MPH (28 KT):0
Visibility: 4 mile(s):0
Temperature: 75 F (24 C)
Dew Point: 39 F (4 C)
Relative Humidity: 27%
Pressure (altimeter): 29.88 in. Hg (1012 hPa)
ob: DTTZ 100200Z 08018G28KT 8000 NSC 24/04 Q1012
cycle: 2

Station Type Date Time Source
DTTZ TAF 2021/05/09 18:57 UTC NOAA

TAF DTTZ 091700Z 0918/1018 09010KT CAVOK
BECMG 0918/0920 09019KT 6000 NSC PROB40
TEMPO 0919/0924 09017G29KT 3000 SA
BECMG 1000/1002 05017KT 5000 NSC
BECMG 1008/1010 09024G35KT 4000 SA PROB40
TEMPO 1010/1016 0800 SS

Example: see airport list